createdAt,value
2023-08-16T00:01:00.462Z,55.30
2023-08-16T00:03:37.757Z,55.51
2023-08-16T00:06:13.092Z,55.58
2023-08-16T00:08:42.050Z,55.66
2023-08-16T00:11:10.695Z,55.54
2023-08-16T00:13:39.161Z,55.76
2023-08-16T00:16:07.753Z,55.72
2023-08-16T00:18:36.220Z,55.76
2023-08-16T00:21:04.646Z,55.89
2023-08-16T00:23:33.260Z,55.79
2023-08-16T00:26:01.587Z,56.01
2023-08-16T00:28:29.959Z,56.04
2023-08-16T00:30:58.633Z,56.20
2023-08-16T00:33:27.044Z,56.36
2023-08-16T00:35:55.384Z,56.29
2023-08-16T00:38:24.015Z,56.43
2023-08-16T00:40:52.693Z,56.46
2023-08-16T00:43:21.120Z,56.66
2023-08-16T00:45:50.421Z,56.45
2023-08-16T00:48:19.248Z,56.47
2023-08-16T00:50:48.126Z,56.31
2023-08-16T00:53:19.189Z,56.36
2023-08-16T00:55:47.827Z,56.42
2023-08-16T00:58:16.423Z,56.56
2023-08-16T01:00:44.882Z,56.76
2023-08-16T01:03:13.391Z,56.72
2023-08-16T01:05:42.087Z,56.91
2023-08-16T01:08:10.650Z,57.06
2023-08-16T01:10:43.527Z,57.13
2023-08-16T01:13:14.814Z,57.28
2023-08-16T01:15:45.436Z,57.49
2023-08-16T01:18:15.361Z,57.56
2023-08-16T01:20:44.790Z,57.60
2023-08-16T01:23:19.623Z,57.81
2023-08-16T01:25:51.011Z,57.91
2023-08-16T01:28:20.169Z,57.99
2023-08-16T01:30:48.940Z,58.17
2023-08-16T01:33:17.302Z,58.35
2023-08-16T01:35:45.956Z,58.63
2023-08-16T01:38:14.716Z,58.86
2023-08-16T01:40:50.252Z,59.12
2023-08-16T01:43:18.807Z,59.34
2023-08-16T01:45:48.989Z,59.63
2023-08-16T01:48:17.805Z,59.81
2023-08-16T01:50:46.515Z,59.89
2023-08-16T01:53:15.106Z,60.04
2023-08-16T01:55:43.421Z,60.15
2023-08-16T01:58:11.883Z,60.38
2023-08-16T02:00:40.180Z,60.46
2023-08-16T02:03:08.540Z,60.81
2023-08-16T02:05:37.267Z,60.95
2023-08-16T02:08:06.199Z,61.09
2023-08-16T02:10:34.630Z,61.21
2023-08-16T02:13:03.305Z,61.42
2023-08-16T02:15:31.816Z,61.45
2023-08-16T02:18:00.337Z,61.57
2023-08-16T02:20:28.787Z,61.66
2023-08-16T02:22:57.272Z,61.71
2023-08-16T02:25:25.635Z,61.95
2023-08-16T02:27:54.171Z,61.97
2023-08-16T02:30:22.764Z,62.14
2023-08-16T02:32:51.073Z,62.09
2023-08-16T02:35:19.728Z,62.26
2023-08-16T02:37:48.089Z,62.18
2023-08-16T02:40:17.189Z,62.26
2023-08-16T02:42:47.248Z,62.36
2023-08-16T02:45:15.667Z,62.40
2023-08-16T02:47:44.114Z,62.39
2023-08-16T02:50:12.846Z,62.40
2023-08-16T02:52:41.142Z,62.47
2023-08-16T02:55:10.187Z,62.55
2023-08-16T02:57:38.700Z,62.65
2023-08-16T03:00:10.977Z,62.71
2023-08-16T03:02:39.805Z,62.79
2023-08-16T03:05:10.086Z,62.75
2023-08-16T03:07:39.673Z,62.92
2023-08-16T03:10:10.192Z,62.76
2023-08-16T03:12:38.608Z,62.71
2023-08-16T03:15:09.241Z,62.93
2023-08-16T03:17:37.652Z,62.74
2023-08-16T03:20:10.221Z,62.85
2023-08-16T03:22:38.650Z,62.80
2023-08-16T03:25:08.989Z,62.86
2023-08-16T03:27:37.544Z,62.77
2023-08-16T03:30:07.936Z,62.87
2023-08-16T03:32:36.299Z,62.93
2023-08-16T03:35:05.898Z,63.10
2023-08-16T03:37:34.298Z,63.18
2023-08-16T03:40:03.124Z,63.45
2023-08-16T03:42:31.507Z,63.59
2023-08-16T03:44:59.853Z,63.67
2023-08-16T03:47:30.292Z,64.00
2023-08-16T03:50:00.173Z,64.04
2023-08-16T03:52:28.481Z,63.84
2023-08-16T03:54:56.904Z,63.98
2023-08-16T03:57:25.750Z,64.24
2023-08-16T03:59:54.445Z,64.26
2023-08-16T04:02:22.932Z,64.51
2023-08-16T04:04:53.491Z,64.48
2023-08-16T04:07:22.529Z,64.65
2023-08-16T04:09:51.590Z,64.96
2023-08-16T04:12:20.304Z,65.03
2023-08-16T04:14:48.669Z,65.26
2023-08-16T04:17:17.292Z,65.46
2023-08-16T04:19:45.654Z,65.67
2023-08-16T04:22:13.969Z,65.68
2023-08-16T04:24:42.621Z,65.48
2023-08-16T04:27:11.029Z,65.35
2023-08-16T04:29:39.550Z,65.61
2023-08-16T04:32:08.378Z,65.85
2023-08-16T04:34:36.810Z,65.97
2023-08-16T04:37:05.363Z,66.11
2023-08-16T04:39:33.848Z,66.27
2023-08-16T04:42:02.189Z,66.51
2023-08-16T04:44:30.538Z,66.77
2023-08-16T04:46:58.861Z,67.00
2023-08-16T04:49:28.804Z,67.18
2023-08-16T04:51:57.624Z,67.23
2023-08-16T04:54:26.307Z,67.31
2023-08-16T04:56:54.764Z,67.09
2023-08-16T04:59:23.143Z,67.13
2023-08-16T05:01:51.544Z,67.25
2023-08-16T05:04:19.839Z,67.40
2023-08-16T05:06:48.159Z,67.60
2023-08-16T05:09:16.836Z,67.33
2023-08-16T05:11:45.217Z,67.45
2023-08-16T05:14:13.544Z,67.49
2023-08-16T05:16:42.031Z,67.35
2023-08-16T05:19:10.508Z,67.05
2023-08-16T05:21:38.942Z,66.94
2023-08-16T05:24:09.008Z,66.85
2023-08-16T05:26:37.472Z,66.62
2023-08-16T05:29:05.962Z,66.47
2023-08-16T05:31:34.274Z,66.12
2023-08-16T05:34:02.664Z,66.08
2023-08-16T05:36:31.018Z,66.02
2023-08-16T05:38:59.597Z,65.83
2023-08-16T05:41:29.523Z,65.67
2023-08-16T05:43:57.944Z,65.63
2023-08-16T05:46:26.273Z,65.50
2023-08-16T05:48:54.582Z,65.40
2023-08-16T05:51:22.936Z,65.16
2023-08-16T05:53:51.240Z,65.05
2023-08-16T05:56:19.704Z,64.76
2023-08-16T05:58:48.018Z,64.54
2023-08-16T06:01:16.561Z,64.19
2023-08-16T06:03:45.070Z,63.93
2023-08-16T06:06:13.530Z,63.73
2023-08-16T06:08:42.133Z,63.57
2023-08-16T06:11:11.047Z,63.16
2023-08-16T06:13:39.376Z,62.86
2023-08-16T06:16:08.052Z,62.54
2023-08-16T06:18:36.348Z,62.16
2023-08-16T06:21:04.711Z,62.15
2023-08-16T06:23:33.162Z,61.83
2023-08-16T06:26:01.458Z,61.53
2023-08-16T06:28:30.748Z,61.26
2023-08-16T06:30:59.133Z,61.03
2023-08-16T06:33:28.436Z,61.07
2023-08-16T06:35:56.802Z,60.81
2023-08-16T06:38:25.132Z,60.81
2023-08-16T06:40:53.769Z,60.63
2023-08-16T06:43:22.215Z,60.48
2023-08-16T06:45:51.043Z,60.49
2023-08-16T06:48:19.320Z,60.38
2023-08-16T06:50:47.759Z,60.27
2023-08-16T06:53:16.448Z,60.05
2023-08-16T06:55:44.817Z,59.68
2023-08-16T06:58:13.169Z,58.94
2023-08-16T07:00:45.035Z,58.82
2023-08-16T07:03:13.518Z,58.64
2023-08-16T07:05:42.185Z,58.57
2023-08-16T07:08:10.635Z,58.25
2023-08-16T07:10:39.025Z,57.93
2023-08-16T07:13:07.664Z,57.77
2023-08-16T07:15:36.074Z,57.41
2023-08-16T07:18:06.252Z,57.42
2023-08-16T07:20:34.974Z,57.21
2023-08-16T07:23:05.981Z,56.88
2023-08-16T07:25:35.479Z,56.78
2023-08-16T07:28:05.306Z,56.39
2023-08-16T07:30:36.086Z,56.24
2023-08-16T07:33:05.569Z,56.05
2023-08-16T07:35:34.031Z,55.90
2023-08-16T07:38:04.187Z,55.66
2023-08-16T07:40:32.694Z,55.44
2023-08-16T07:43:01.067Z,55.09
2023-08-16T07:45:29.495Z,54.61
2023-08-16T07:47:58.153Z,54.39
2023-08-16T07:50:26.630Z,54.13
2023-08-16T07:52:54.997Z,54.01
2023-08-16T07:55:29.695Z,53.80
2023-08-16T07:57:58.112Z,52.58
2023-08-16T08:00:26.598Z,52.11
2023-08-16T08:02:59.823Z,51.59
2023-08-16T08:05:31.136Z,51.65
2023-08-16T08:08:01.252Z,51.29
2023-08-16T08:10:31.040Z,51.33
2023-08-16T08:13:00.059Z,51.15
2023-08-16T08:15:28.869Z,50.80
2023-08-16T08:17:57.486Z,50.13
2023-08-16T08:20:26.034Z,49.80
2023-08-16T08:22:54.507Z,49.90
2023-08-16T08:25:22.907Z,49.71
2023-08-16T08:27:51.258Z,50.00
2023-08-16T08:30:20.075Z,48.26
2023-08-16T08:32:48.982Z,47.65
2023-08-16T08:35:17.530Z,46.67
2023-08-16T08:37:45.871Z,47.13
2023-08-16T08:40:15.256Z,46.74
2023-08-16T08:42:47.244Z,45.71
2023-08-16T08:45:15.966Z,45.22
2023-08-16T08:47:45.358Z,44.91
2023-08-16T08:50:13.892Z,44.96
2023-08-16T08:52:42.774Z,44.25
2023-08-16T08:55:11.453Z,44.19
2023-08-16T08:57:39.883Z,43.53
2023-08-16T09:00:15.078Z,43.58
2023-08-16T09:02:44.105Z,43.61
2023-08-16T09:05:13.999Z,43.34
2023-08-16T09:07:43.379Z,42.88
2023-08-16T09:10:13.052Z,42.72
2023-08-16T09:12:41.510Z,42.45
2023-08-16T09:15:11.010Z,41.59
2023-08-16T09:17:39.406Z,41.04
2023-08-16T09:20:09.594Z,41.03
2023-08-16T09:22:39.091Z,40.93
2023-08-16T09:25:11.557Z,40.79
2023-08-16T09:27:42.335Z,41.25
2023-08-16T09:30:15.239Z,40.87
2023-08-16T09:32:46.366Z,39.73
2023-08-16T09:35:14.885Z,39.46
2023-08-16T09:37:44.655Z,39.58
2023-08-16T09:40:13.423Z,39.75
2023-08-16T09:42:41.753Z,38.98
2023-08-16T09:45:10.798Z,39.25
2023-08-16T09:47:59.739Z,39.09
2023-08-16T09:50:29.335Z,38.48
2023-08-16T09:52:58.939Z,37.80
2023-08-16T09:55:30.090Z,37.52
2023-08-16T09:57:59.732Z,37.09
2023-08-16T10:00:28.908Z,36.84
2023-08-16T10:02:58.931Z,36.11
2023-08-16T10:05:46.185Z,35.87
2023-08-16T10:08:15.309Z,36.04
2023-08-16T10:10:44.133Z,35.72
2023-08-16T10:13:12.939Z,35.09
2023-08-16T10:15:44.540Z,35.50
2023-08-16T10:18:14.062Z,35.55
2023-08-16T10:20:43.447Z,35.17
2023-08-16T10:23:12.919Z,35.03
2023-08-16T10:25:45.999Z,34.49
2023-08-16T10:28:16.122Z,33.50
2023-08-16T10:31:13.279Z,33.22
2023-08-16T10:33:38.037Z,32.58
2023-08-16T10:36:07.641Z,31.91
2023-08-16T10:38:38.201Z,31.70
2023-08-16T10:41:14.576Z,31.30
2023-08-16T10:43:49.861Z,31.46
2023-08-16T10:46:30.451Z,31.43
2023-08-16T10:49:01.673Z,31.18
2023-08-16T10:51:30.921Z,30.68
2023-08-16T10:53:59.644Z,30.35
2023-08-16T10:56:38.739Z,30.26
2023-08-16T10:59:08.446Z,30.82
2023-08-16T11:01:44.273Z,31.08
2023-08-16T11:04:13.362Z,31.60
2023-08-16T11:06:48.182Z,32.28
2023-08-16T11:09:20.516Z,32.42
2023-08-16T11:11:49.583Z,32.84
2023-08-16T11:14:19.354Z,33.19
2023-08-16T11:16:47.926Z,33.38
2023-08-16T11:19:18.435Z,33.44
2023-08-16T11:21:48.124Z,33.58
2023-08-16T11:24:16.422Z,33.77
2023-08-16T11:26:45.074Z,34.51
2023-08-16T11:29:14.045Z,34.46
2023-08-16T11:31:42.500Z,34.47
2023-08-16T11:34:11.469Z,34.87
2023-08-16T11:36:40.110Z,34.90
2023-08-16T11:39:09.331Z,34.81
2023-08-16T11:41:37.984Z,35.03
2023-08-16T11:44:07.153Z,35.16
2023-08-16T11:46:47.890Z,34.99
2023-08-16T11:49:22.141Z,35.35
2023-08-16T11:51:51.502Z,35.39
2023-08-16T11:54:23.613Z,35.56
2023-08-16T11:56:52.222Z,35.58
2023-08-16T11:59:27.744Z,35.73
2023-08-16T12:01:56.210Z,35.95
2023-08-16T12:04:25.530Z,35.89
2023-08-16T12:06:54.340Z,36.21
2023-08-16T12:09:22.840Z,36.13
2023-08-16T12:11:52.831Z,35.90
2023-08-16T12:14:24.412Z,36.12
2023-08-16T12:16:52.775Z,35.94
2023-08-16T12:19:21.358Z,35.29
2023-08-16T12:21:50.881Z,35.36
2023-08-16T12:24:19.349Z,35.25
2023-08-16T12:26:48.022Z,34.96
2023-08-16T12:29:17.713Z,34.38
2023-08-16T12:31:46.060Z,34.00
2023-08-16T12:34:14.466Z,33.55
2023-08-16T12:36:42.731Z,33.39
2023-08-16T12:39:11.181Z,32.37
2023-08-16T12:41:39.620Z,32.30
2023-08-16T12:44:08.879Z,31.92
2023-08-16T12:46:37.335Z,32.40
2023-08-16T12:49:05.925Z,32.47
2023-08-16T12:51:34.284Z,32.44
2023-08-16T12:54:02.608Z,32.67
2023-08-16T12:56:31.103Z,32.17
2023-08-16T12:58:59.471Z,32.04
2023-08-16T13:04:00.513Z,30.81
2023-08-16T13:06:31.851Z,30.73
2023-08-16T13:09:04.223Z,30.13
2023-08-16T13:11:35.188Z,29.69
2023-08-16T13:14:08.688Z,29.69
2023-08-16T13:19:24.119Z,29.56
2023-08-16T13:21:54.822Z,28.98
2023-08-16T13:29:30.597Z,28.07
2023-08-16T13:32:06.838Z,28.04
2023-08-16T13:37:24.907Z,28.66
2023-08-16T13:45:17.004Z,28.47
2023-08-16T13:47:45.511Z,28.89
2023-08-16T13:50:13.902Z,29.17
2023-08-16T13:52:42.280Z,29.31
2023-08-16T13:55:12.262Z,29.69
2023-08-16T13:57:40.782Z,29.72
2023-08-16T14:00:10.864Z,29.27
2023-08-16T14:02:40.464Z,29.33
2023-08-16T14:05:09.794Z,29.57
2023-08-16T14:07:38.330Z,29.72
2023-08-16T14:10:08.451Z,29.64
2023-08-16T14:12:37.204Z,29.55
2023-08-16T14:15:07.254Z,29.18
2023-08-16T14:17:35.805Z,29.04
2023-08-16T14:20:08.064Z,28.91
2023-08-16T14:22:36.505Z,28.90
2023-08-16T14:25:05.906Z,28.76
2023-08-16T14:27:34.802Z,27.93
2023-08-16T14:30:03.931Z,27.75
2023-08-16T14:32:33.388Z,27.79
2023-08-16T14:35:01.730Z,27.75
2023-08-16T14:37:30.143Z,27.70
2023-08-16T14:39:58.733Z,27.42
2023-08-16T14:42:27.463Z,27.57
2023-08-16T14:44:56.075Z,27.30
2023-08-16T14:47:24.464Z,27.24
2023-08-16T14:49:53.096Z,27.36
2023-08-16T14:52:21.476Z,27.41
2023-08-16T14:54:50.376Z,27.15
2023-08-16T14:57:18.917Z,27.60
2023-08-16T14:59:47.324Z,27.61
2023-08-16T15:02:15.742Z,27.45
2023-08-16T15:04:44.159Z,27.20
2023-08-16T15:07:12.609Z,26.91
2023-08-16T15:09:41.013Z,26.71
2023-08-16T15:12:10.006Z,26.85
2023-08-16T15:14:38.439Z,26.95
2023-08-16T15:17:06.748Z,26.73
2023-08-16T15:19:40.797Z,26.66
2023-08-16T15:22:09.996Z,26.78
2023-08-16T15:24:38.527Z,26.72
2023-08-16T15:27:06.958Z,26.73
2023-08-16T15:29:35.378Z,26.31
2023-08-16T15:32:04.156Z,26.45
2023-08-16T15:34:32.597Z,26.72
2023-08-16T15:37:01.055Z,26.31
2023-08-16T15:39:29.423Z,26.73
2023-08-16T15:41:58.999Z,26.71
2023-08-16T15:44:27.282Z,26.32
2023-08-16T15:46:56.108Z,26.22
2023-08-16T15:49:25.296Z,26.03
2023-08-16T15:51:54.290Z,26.20
2023-08-16T15:54:22.672Z,26.17
2023-08-16T15:56:51.034Z,26.30
2023-08-16T15:59:19.446Z,26.36
2023-08-16T16:01:47.735Z,26.47
2023-08-16T16:04:16.702Z,26.39
2023-08-16T16:06:45.019Z,26.45
2023-08-16T16:09:13.403Z,26.45
2023-08-16T16:11:41.834Z,26.78
2023-08-16T16:14:10.501Z,26.95
2023-08-16T16:16:45.741Z,27.37
2023-08-16T16:19:14.091Z,27.55
2023-08-16T16:21:43.144Z,27.74
2023-08-16T16:24:11.635Z,27.75
2023-08-16T16:26:40.196Z,27.71
2023-08-16T16:29:09.996Z,28.00
2023-08-16T16:31:40.475Z,28.26
2023-08-16T16:34:08.965Z,28.36
2023-08-16T16:36:39.055Z,28.54
2023-08-16T16:39:08.708Z,28.91
2023-08-16T16:41:37.080Z,29.34
2023-08-16T16:44:06.722Z,29.65
2023-08-16T16:46:35.071Z,30.01
2023-08-16T16:49:03.575Z,30.37
2023-08-16T16:51:32.060Z,30.69
2023-08-16T16:54:00.364Z,30.92
2023-08-16T16:56:28.847Z,31.65
2023-08-16T16:58:57.250Z,32.12
2023-08-16T17:01:25.944Z,32.11
2023-08-16T17:03:54.434Z,32.47
2023-08-16T17:06:22.768Z,32.63
2023-08-16T17:08:51.197Z,33.25
2023-08-16T17:11:19.583Z,34.11
2023-08-16T17:13:48.129Z,34.64
2023-08-16T17:16:16.842Z,34.82
2023-08-16T17:18:45.381Z,35.27
2023-08-16T17:21:15.622Z,35.76
2023-08-16T17:23:45.060Z,36.10
2023-08-16T17:26:14.251Z,36.64
2023-08-16T17:28:42.608Z,36.79
2023-08-16T17:31:12.144Z,37.34
2023-08-16T17:33:40.781Z,37.87
2023-08-16T17:36:13.498Z,38.28
2023-08-16T17:38:43.770Z,38.63
2023-08-16T17:41:14.993Z,39.12
2023-08-16T17:43:44.161Z,39.59
2023-08-16T17:46:12.639Z,40.01
2023-08-16T17:48:41.197Z,40.30
2023-08-16T17:51:09.729Z,40.53
2023-08-16T17:53:38.196Z,40.82
2023-08-16T17:56:06.823Z,40.85
2023-08-16T17:58:35.963Z,41.01
2023-08-16T18:01:05.852Z,41.10
2023-08-16T18:03:34.641Z,41.80
2023-08-16T18:06:03.447Z,42.20
2023-08-16T18:08:31.908Z,42.25
2023-08-16T18:11:00.374Z,42.23
2023-08-16T18:13:29.041Z,42.56
2023-08-16T18:15:57.453Z,42.79
2023-08-16T18:18:26.582Z,42.87
2023-08-16T18:20:55.263Z,42.95
2023-08-16T18:23:23.973Z,42.96
2023-08-16T18:25:52.844Z,43.06
2023-08-16T18:28:21.210Z,43.33
2023-08-16T18:30:49.803Z,43.78
2023-08-16T18:33:18.880Z,43.96
2023-08-16T18:35:47.654Z,44.27
2023-08-16T18:38:16.228Z,44.32
2023-08-16T18:40:44.811Z,44.51
2023-08-16T18:43:13.268Z,44.75
2023-08-16T18:45:46.433Z,44.88
2023-08-16T18:48:15.283Z,44.85
2023-08-16T18:50:44.625Z,44.89
2023-08-16T18:53:13.639Z,44.81
2023-08-16T18:55:43.052Z,44.90
2023-08-16T18:58:11.449Z,44.87
2023-08-16T19:00:42.357Z,44.85
2023-08-16T19:03:10.882Z,45.14
2023-08-16T19:05:44.068Z,45.03
2023-08-16T19:08:13.725Z,45.22
2023-08-16T19:10:42.952Z,45.16
2023-08-16T19:13:11.504Z,45.16
2023-08-16T19:15:39.962Z,45.51
2023-08-16T19:18:09.182Z,45.65
2023-08-16T19:20:39.263Z,45.61
2023-08-16T19:23:07.646Z,45.80
2023-08-16T19:25:36.044Z,45.74
2023-08-16T19:28:05.482Z,45.95
2023-08-16T19:30:36.282Z,46.15
2023-08-16T19:33:05.587Z,46.27
2023-08-16T19:35:33.930Z,46.30
2023-08-16T19:38:02.331Z,46.26
2023-08-16T19:40:31.285Z,46.44
2023-08-16T19:42:59.705Z,46.59
2023-08-16T19:45:28.052Z,46.53
2023-08-16T19:47:56.669Z,46.59
2023-08-16T19:50:25.529Z,46.64
2023-08-16T19:52:55.060Z,46.57
2023-08-16T19:55:23.817Z,46.63
2023-08-16T19:57:52.722Z,46.65
2023-08-16T20:00:22.026Z,46.71
2023-08-16T20:02:50.533Z,46.80
2023-08-16T20:05:19.525Z,46.87
2023-08-16T20:07:47.844Z,46.90
2023-08-16T20:10:17.773Z,47.09
2023-08-16T20:12:46.827Z,47.04
2023-08-16T20:15:15.616Z,47.34
2023-08-16T20:17:44.079Z,47.30
2023-08-16T20:20:13.843Z,47.49
2023-08-16T20:22:43.449Z,47.52
2023-08-16T20:25:12.072Z,47.59
2023-08-16T20:27:40.824Z,47.72
2023-08-16T20:30:11.157Z,47.78
2023-08-16T20:32:39.541Z,47.87
2023-08-16T20:35:08.788Z,47.99
2023-08-16T20:37:37.232Z,48.08
2023-08-16T20:40:08.659Z,48.39
2023-08-16T20:42:38.784Z,48.40
2023-08-16T20:45:10.032Z,48.61
2023-08-16T20:47:39.728Z,48.77
2023-08-16T20:50:11.313Z,48.99
2023-08-16T20:52:42.306Z,49.09
2023-08-16T20:55:11.768Z,49.18
2023-08-16T20:57:40.239Z,49.51
2023-08-16T21:00:12.221Z,49.73
2023-08-16T21:02:40.665Z,50.11
2023-08-16T21:05:09.643Z,50.21
2023-08-16T21:07:38.069Z,50.51
2023-08-16T21:10:08.181Z,50.62
2023-08-16T21:12:36.684Z,50.82
2023-08-16T21:15:06.656Z,50.99
2023-08-16T21:17:35.074Z,51.25
2023-08-16T21:20:03.937Z,51.40
2023-08-16T21:22:32.317Z,51.61
2023-08-16T21:25:00.726Z,51.72
2023-08-16T21:27:29.053Z,51.95
2023-08-16T21:29:57.382Z,52.16
2023-08-16T21:32:25.749Z,52.40
2023-08-16T21:34:54.064Z,52.68
2023-08-16T21:37:22.489Z,52.92
2023-08-16T21:39:52.075Z,52.83
2023-08-16T21:42:20.530Z,53.08
2023-08-16T21:44:48.832Z,53.07
2023-08-16T21:47:17.265Z,53.09
2023-08-16T21:49:45.648Z,53.24
2023-08-16T21:52:13.982Z,53.35
2023-08-16T21:54:42.488Z,53.87
2023-08-16T21:57:10.842Z,54.18
2023-08-16T21:59:39.177Z,54.39
2023-08-16T22:02:07.680Z,54.52
2023-08-16T22:04:36.517Z,54.79
2023-08-16T22:07:05.290Z,54.87
2023-08-16T22:09:34.433Z,55.06
2023-08-16T22:12:03.001Z,55.23
2023-08-16T22:14:31.429Z,55.45
2023-08-16T22:16:59.893Z,55.63
2023-08-16T22:19:28.235Z,55.80
2023-08-16T22:21:56.539Z,56.37
2023-08-16T22:24:24.862Z,56.45
2023-08-16T22:26:53.267Z,56.70
2023-08-16T22:29:22.465Z,56.78
2023-08-16T22:31:52.075Z,56.60
2023-08-16T22:34:21.887Z,56.91
2023-08-16T22:36:50.381Z,57.03
2023-08-16T22:39:18.687Z,57.07
2023-08-16T22:41:47.901Z,57.32
2023-08-16T22:44:16.312Z,57.29
2023-08-16T22:46:44.784Z,57.54
2023-08-16T22:49:13.325Z,57.70
2023-08-16T22:51:41.658Z,57.71
2023-08-16T22:54:10.441Z,57.74
2023-08-16T22:56:39.317Z,57.96
2023-08-16T22:59:07.671Z,58.22
2023-08-16T23:01:36.096Z,58.46
2023-08-16T23:04:05.702Z,58.68
2023-08-16T23:06:35.000Z,58.97
2023-08-16T23:09:04.055Z,59.12
2023-08-16T23:11:32.698Z,59.25
2023-08-16T23:14:01.302Z,59.37
2023-08-16T23:16:29.882Z,59.46
2023-08-16T23:19:00.214Z,59.75
2023-08-16T23:21:28.721Z,60.00
2023-08-16T23:23:57.210Z,60.33
2023-08-16T23:26:25.819Z,61.12
2023-08-16T23:28:54.188Z,61.35
2023-08-16T23:31:22.516Z,61.36
2023-08-16T23:33:51.284Z,61.29
2023-08-16T23:36:19.593Z,61.90
2023-08-16T23:38:48.032Z,62.26
2023-08-16T23:41:16.592Z,61.84
2023-08-16T23:43:45.016Z,61.89
2023-08-16T23:46:13.509Z,61.67
2023-08-16T23:48:43.243Z,61.66
2023-08-16T23:51:11.516Z,61.88
2023-08-16T23:53:40.032Z,61.74
2023-08-16T23:56:08.647Z,61.70
2023-08-16T23:58:37.110Z,61.51
